Time;durP1;ratioP1;P1;durP2;ratioP2;P2;SDS_P1;SDS_P2;PMS_P1;PMS_P2;Temp;Humidity;BMP_temperature;BMP_pressure;BME280_temperature;BME280_humidity;BME280_pressure;Samples;Min_cycle;Max_cycle;Signal;HPM_P1;HPM_P2
2022/09/29 00:01:45;;;;;;;37.80;27.37;;;;;;;8.04;96.07;98731.75;5098161;28;20493;-73
2022/09/29 00:04:13;;;;;;;37.37;28.27;;;;;;;7.97;95.65;98733.38;5098504;28;20489;-70
2022/09/29 00:06:40;;;;;;;37.27;26.60;;;;;;;7.93;95.71;98732.88;5097629;28;20521;-71
2022/09/29 00:09:08;;;;;;;35.37;25.37;;;;;;;7.90;95.71;98728.72;5099172;28;20467;-71
2022/09/29 00:11:35;;;;;;;33.33;24.03;;;;;;;7.96;95.82;98731.72;5098244;28;20503;-72
2022/09/29 00:14:01;;;;;;;34.63;25.70;;;;;;;7.96;95.87;98732.56;5099233;28;20435;-71
2022/09/29 00:16:29;;;;;;;33.10;25.23;;;;;;;8.09;95.63;98732.94;5097728;28;20516;-70
2022/09/29 00:18:56;;;;;;;32.40;25.67;;;;;;;8.10;95.87;98733.75;5097503;28;20434;-70
2022/09/29 00:21:22;;;;;;;31.00;24.07;;;;;;;8.08;95.61;98735.75;5097817;28;20470;-70
2022/09/29 00:23:50;;;;;;;31.37;23.77;;;;;;;8.03;95.63;98732.75;5099015;28;20475;-70
2022/09/29 00:26:19;;;;;;;36.90;26.23;;;;;;;7.94;95.79;98728.41;5097720;28;20467;-73
2022/09/29 00:28:51;;;;;;;32.43;24.77;;;;;;;7.92;95.39;98721.41;5098822;28;20513;-73
2022/09/29 00:31:18;;;;;;;32.43;25.70;;;;;;;7.89;95.60;98719.06;5097868;28;20494;-73
2022/09/29 00:33:45;;;;;;;32.00;24.27;;;;;;;7.86;95.53;98721.22;5098323;28;20462;-73
2022/09/29 00:36:14;;;;;;;33.43;26.27;;;;;;;7.83;95.47;98717.06;5097104;28;20527;-71
2022/09/29 00:38:41;;;;;;;29.73;22.80;;;;;;;7.91;95.72;98722.38;5099038;28;20440;-71
2022/09/29 00:41:09;;;;;;;35.17;23.27;;;;;;;7.94;95.76;98723.06;5097826;28;20509;-72
2022/09/29 00:43:53;;;;;;;35.00;24.60;;;;;;;7.96;95.95;98715.75;5099009;28;20468;-71
2022/09/29 00:46:31;;;;;;;30.10;23.17;;;;;;;8.12;95.24;98729.09;5096541;28;20503;-71
2022/09/29 00:49:00;;;;;;;35.03;23.43;;;;;;;8.18;95.00;98728.47;5097263;28;20493;-71
2022/09/29 00:51:27;;;;;;;28.90;22.83;;;;;;;8.13;94.43;98728.13;5097922;28;20475;-71
2022/09/29 00:53:54;;;;;;;27.83;22.70;;;;;;;8.05;94.44;98720.09;5099053;28;21003;-72
2022/09/29 00:56:21;;;;;;;29.40;22.63;;;;;;;7.96;94.35;98726.41;5098984;28;21032;-70
2022/09/29 00:58:53;;;;;;;29.80;21.90;;;;;;;7.84;94.93;98720.53;5101840;28;20472;-70
2022/09/29 01:01:21;;;;;;;26.43;21.67;;;;;;;7.79;95.29;98723.66;5101120;28;20463;-71
2022/09/29 01:03:48;;;;;;;29.37;23.17;;;;;;;7.69;95.30;98721.16;5101328;28;20535;-69
2022/09/29 01:06:17;;;;;;;32.67;24.17;;;;;;;7.69;95.76;98729.13;5101036;28;20486;-69
2022/09/29 01:08:47;;;;;;;30.93;22.90;;;;;;;7.58;95.70;98721.41;5101455;28;20710;-70
2022/09/29 01:11:14;;;;;;;29.57;22.93;;;;;;;7.59;95.70;98724.94;5100812;28;20497;-69
2022/09/29 01:13:41;;;;;;;31.83;23.90;;;;;;;7.57;96.03;98725.09;5101767;28;20569;-71
2022/09/29 01:16:09;;;;;;;30.50;22.10;;;;;;;7.38;95.95;98722.66;5101437;28;20467;-69
2022/09/29 01:18:36;;;;;;;26.27;21.40;;;;;;;7.33;96.03;98725.78;5099602;28;20477;-70
2022/09/29 01:21:14;;;;;;;34.10;23.90;;;;;;;7.37;96.02;98715.69;5085995;28;20475;-69
2022/09/29 01:23:51;;;;;;;33.50;23.33;;;;;;;7.47;95.74;98725.19;5101890;28;20467;-69
2022/09/29 01:26:51;;;;;;;29.57;23.70;;;;;;;7.41;96.05;98722.34;5100586;28;20483;-69
2022/09/29 01:29:38;;;;;;;37.23;24.13;;;;;;;7.42;95.91;98724.00;5056895;28;20455;-68
2022/09/29 01:32:11;;;;;;;31.70;22.73;;;;;;;7.26;96.15;98728.25;5101065;28;20513;-69
2022/09/29 01:34:43;;;;;;;27.87;22.67;;;;;;;7.20;96.17;98725.38;5085720;28;20462;-69
2022/09/29 01:37:16;;;;;;;34.33;23.80;;;;;;;7.06;95.66;98727.59;5100632;28;20505;-69
2022/09/29 01:39:48;;;;;;;32.43;23.33;;;;;;;7.01;95.55;98734.38;5101479;28;20439;-68
2022/09/29 01:42:18;;;;;;;37.27;27.00;;;;;;;6.97;95.95;98729.38;5100382;28;20486;-69
2022/09/29 01:44:47;;;;;;;35.17;24.50;;;;;;;6.91;95.82;98735.31;5100420;28;21056;-68
2022/09/29 01:47:19;;;;;;;37.30;24.63;;;;;;;6.87;96.07;98736.59;5100343;28;20479;-70
2022/09/29 01:49:50;;;;;;;28.77;21.83;;;;;;;6.82;95.83;98732.75;5100488;28;20463;-69
2022/09/29 01:52:18;;;;;;;35.57;25.90;;;;;;;6.80;96.29;98730.22;5099789;28;20511;-69
2022/09/29 01:54:48;;;;;;;33.87;23.87;;;;;;;6.75;96.52;98735.16;5101071;28;20443;-69
2022/09/29 01:57:17;;;;;;;31.47;23.80;;;;;;;6.68;96.35;98732.28;5099909;28;20478;-69
2022/09/29 01:59:47;;;;;;;34.90;23.93;;;;;;;6.60;96.18;98735.72;5101427;28;20478;-67
2022/09/29 02:02:19;;;;;;;33.40;23.10;;;;;;;6.65;95.92;98731.75;5099258;28;20501;-69
2022/09/29 02:04:49;;;;;;;34.17;22.30;;;;;;;6.67;95.80;98735.94;5101238;28;20506;-68
2022/09/29 02:07:21;;;;;;;32.93;24.43;;;;;;;6.69;95.91;98731.31;5098832;28;20505;-69
2022/09/29 02:09:50;;;;;;;33.27;24.33;;;;;;;6.68;95.87;98734.13;5101126;28;20483;-68
2022/09/29 02:12:21;;;;;;;36.50;26.53;;;;;;;6.67;95.85;98735.13;5099589;28;20519;-69
2022/09/29 02:14:49;;;;;;;35.03;26.00;;;;;;;6.67;95.70;98745.75;5100954;28;20440;-67
2022/09/29 02:17:20;;;;;;;36.67;26.47;;;;;;;6.65;95.95;98734.41;5099254;28;20528;-68
2022/09/29 02:19:48;;;;;;;33.47;24.77;;;;;;;6.63;95.92;98731.94;5100451;28;20461;-69
2022/09/29 02:22:15;;;;;;;36.53;27.63;;;;;;;6.65;95.90;98739.72;5099572;28;20479;-67
2022/09/29 02:24:41;;;;;;;37.83;27.50;;;;;;;6.66;95.84;98731.63;5100829;28;20463;-69
2022/09/29 02:27:08;;;;;;;34.60;25.87;;;;;;;6.62;95.98;98737.41;5099429;28;20499;-70
2022/09/29 02:29:36;;;;;;;37.60;25.97;;;;;;;6.60;96.32;98741.03;5101018;28;20505;-69
2022/09/29 02:32:02;;;;;;;35.20;25.57;;;;;;;6.61;96.24;98739.19;5099701;28;20479;-70
2022/09/29 02:34:32;;;;;;;34.60;22.70;;;;;;;6.69;96.80;98743.78;5099815;28;20444;-70
2022/09/29 02:37:04;;;;;;;30.67;23.70;;;;;;;6.67;96.38;98751.06;5099747;28;20482;-70
2022/09/29 02:39:39;;;;;;;36.30;25.23;;;;;;;6.59;96.17;98743.84;5100628;28;20468;-69
2022/09/29 02:42:13;;;;;;;34.90;25.47;;;;;;;6.45;96.44;98745.19;5099774;28;20934;-70
2022/09/29 02:44:52;;;;;;;34.80;25.13;;;;;;;6.48;96.25;98741.44;5100395;28;20479;-70
2022/09/29 02:47:46;;;;;;;35.20;26.00;;;;;;;6.47;96.32;98743.22;5098746;28;20506;-69
2022/09/29 02:50:41;;;;;;;35.73;25.60;;;;;;;6.48;96.14;98744.91;5069418;28;20460;-70
2022/09/29 02:53:13;;;;;;;35.70;26.10;;;;;;;6.44;96.06;98743.56;5099681;28;20485;-69
2022/09/29 02:55:43;;;;;;;37.70;28.03;;;;;;;6.38;96.48;98752.94;5098988;28;20478;-70
2022/09/29 02:58:13;;;;;;;37.90;26.20;;;;;;;6.41;96.40;98747.31;5099931;28;20440;-70
2022/09/29 03:00:40;;;;;;;36.43;26.57;;;;;;;6.40;96.52;98755.44;5099295;28;20475;-70
2022/09/29 03:03:07;;;;;;;35.57;26.90;;;;;;;6.35;96.37;98750.59;5099249;28;20459;-71
2022/09/29 03:05:33;;;;;;;34.90;23.90;;;;;;;6.37;96.20;98753.06;5098869;28;20483;-71
2022/09/29 03:08:02;;;;;;;36.90;24.63;;;;;;;6.32;96.03;98748.25;5099399;28;20479;-71
2022/09/29 03:10:28;;;;;;;36.53;24.60;;;;;;;6.28;96.21;98749.50;5079038;28;20472;-72
2022/09/29 03:12:55;;;;;;;39.07;25.90;;;;;;;6.30;96.37;98758.19;5091897;28;20466;-70
2022/09/29 03:15:22;;;;;;;37.23;26.13;;;;;;;6.34;96.08;98748.91;5099494;28;21219;-71
2022/09/29 03:17:49;;;;;;;34.77;24.57;;;;;;;6.31;96.04;98740.44;5098535;28;21002;-71
2022/09/29 03:20:16;;;;;;;38.17;25.23;;;;;;;6.21;96.09;98741.34;5100232;28;20773;-70
2022/09/29 03:22:42;;;;;;;35.40;23.70;;;;;;;6.20;96.71;98744.97;5099669;28;20492;-69
2022/09/29 03:25:14;;;;;;;31.47;22.00;;;;;;;6.18;96.46;98746.94;5099885;28;20471;-70
2022/09/29 03:27:41;;;;;;;33.40;22.70;;;;;;;6.17;96.37;98747.91;5099859;28;20462;-71
2022/09/29 03:30:09;;;;;;;35.80;24.20;;;;;;;6.18;96.67;98740.78;5099551;28;20479;-71
2022/09/29 03:32:36;;;;;;;32.60;24.40;;;;;;;6.16;96.97;98748.91;5099186;28;20455;-70
2022/09/29 03:35:03;;;;;;;36.23;24.40;;;;;;;6.12;96.72;98752.00;5099810;28;20440;-71
2022/09/29 03:37:29;;;;;;;38.83;25.47;;;;;;;6.08;96.63;98745.34;5098855;28;20542;-71
2022/09/29 03:39:56;;;;;;;37.63;25.10;;;;;;;6.09;96.68;98754.94;5100414;28;20473;-69
2022/09/29 03:42:25;;;;;;;32.57;24.27;;;;;;;6.11;96.57;98755.63;5098542;28;20483;-69
2022/09/29 03:44:51;;;;;;;37.10;26.10;;;;;;;6.13;96.60;98751.03;5100289;28;20486;-71
2022/09/29 03:47:18;;;;;;;39.67;24.97;;;;;;;6.13;96.90;98754.50;5098852;28;21021;-70
2022/09/29 03:49:44;;;;;;;36.90;25.70;;;;;;;6.17;96.98;98753.22;5098436;28;20935;-71
2022/09/29 03:52:11;;;;;;;36.60;25.83;;;;;;;6.20;97.10;98760.06;5098635;28;20540;-71
2022/09/29 03:54:38;;;;;;;38.10;25.77;;;;;;;6.20;97.16;98757.41;5099174;28;20464;-70
2022/09/29 03:57:05;;;;;;;38.00;26.67;;;;;;;6.26;97.25;98759.44;5098887;28;20471;-71
2022/09/29 03:59:33;;;;;;;36.00;25.17;;;;;;;6.31;97.10;98769.63;5099587;28;20420;-70
2022/09/29 04:01:59;;;;;;;38.03;25.33;;;;;;;6.30;97.13;98762.63;5095333;28;20484;-71
2022/09/29 04:04:26;;;;;;;32.43;23.20;;;;;;;6.33;97.17;98763.16;5097833;28;20471;-70
2022/09/29 04:06:53;;;;;;;39.20;27.47;;;;;;;6.33;97.14;98765.81;5099145;28;20495;-68
2022/09/29 04:09:19;;;;;;;37.73;24.90;;;;;;;6.48;97.20;98768.81;5099394;28;20439;-69
2022/09/29 04:11:46;;;;;;;34.10;24.10;;;;;;;6.47;97.12;98769.78;5098459;28;20483;-70
2022/09/29 04:14:13;;;;;;;32.27;22.40;;;;;;;6.40;96.94;98771.38;5099069;28;20442;-69
2022/09/29 04:16:41;;;;;;;35.97;23.97;;;;;;;6.36;97.04;98773.47;5098775;28;20487;-70
2022/09/29 04:19:07;;;;;;;38.67;25.00;;;;;;;6.27;96.97;98781.50;5097989;28;20451;-70
2022/09/29 04:21:34;;;;;;;35.67;22.30;;;;;;;6.29;97.08;98771.59;5098358;28;20510;-69
2022/09/29 04:24:01;;;;;;;36.20;24.70;;;;;;;6.22;96.90;98780.13;5099546;28;20495;-70
2022/09/29 04:26:28;;;;;;;34.13;24.50;;;;;;;6.22;97.44;98784.63;5095881;28;20916;-70
2022/09/29 04:28:55;;;;;;;37.90;25.67;;;;;;;6.33;97.19;98783.56;5099060;28;20475;-69
2022/09/29 04:31:22;;;;;;;41.03;25.37;;;;;;;6.25;97.37;98783.47;5095124;28;20476;-69
2022/09/29 04:33:50;;;;;;;37.03;25.37;;;;;;;6.27;98.03;98782.34;5102650;28;20483;-71
2022/09/29 04:36:17;;;;;;;41.77;25.43;;;;;;;6.30;97.88;98783.88;5102569;28;20490;-69
2022/09/29 04:38:44;;;;;;;34.90;24.43;;;;;;;6.57;97.63;98789.13;5102611;28;20448;-75
2022/09/29 04:41:10;;;;;;;37.13;24.00;;;;;;;6.38;97.49;98791.91;5102267;28;20626;-71
2022/09/29 04:43:37;;;;;;;34.97;23.60;;;;;;;6.40;97.57;98801.38;5102641;28;20451;-75
2022/09/29 04:46:05;;;;;;;33.83;24.40;;;;;;;6.40;97.78;98800.56;5101279;28;20485;-75
2022/09/29 04:48:32;;;;;;;33.23;23.60;;;;;;;6.38;97.96;98800.72;5101085;28;20492;-76
2022/09/29 04:51:00;;;;;;;34.67;23.63;;;;;;;6.48;97.70;98799.84;5101683;28;20489;-76
2022/09/29 04:53:26;;;;;;;33.00;22.90;;;;;;;6.58;97.39;98805.91;5101639;28;20467;-76
2022/09/29 04:55:53;;;;;;;34.80;21.77;;;;;;;6.56;97.23;98797.25;5098850;28;20518;-75
2022/09/29 04:58:20;;;;;;;36.20;22.13;;;;;;;6.59;97.29;98816.34;5102275;28;20539;-76
2022/09/29 05:00:46;;;;;;;33.73;22.13;;;;;;;6.52;97.21;98809.97;5100781;28;20486;-75
2022/09/29 05:03:13;;;;;;;36.07;21.77;;;;;;;6.45;97.37;98816.88;5100707;28;20455;-75
2022/09/29 05:05:40;;;;;;;32.30;21.53;;;;;;;6.40;97.37;98811.19;5101213;28;20498;-74
2022/09/29 05:08:08;;;;;;;32.20;21.90;;;;;;;6.38;97.19;98816.63;5101415;28;20487;-75
2022/09/29 05:10:35;;;;;;;35.70;23.73;;;;;;;6.39;97.41;98820.16;5095176;28;20541;-76
2022/09/29 05:13:01;;;;;;;33.23;22.17;;;;;;;6.38;97.28;98821.13;5101096;28;20451;-77
2022/09/29 05:15:28;;;;;;;36.80;23.20;;;;;;;6.36;96.68;98815.13;5101633;28;20490;-70
2022/09/29 05:17:54;;;;;;;34.77;24.57;;;;;;;6.36;96.62;98823.09;5099549;28;20447;-70
2022/09/29 05:20:21;;;;;;;35.80;23.60;;;;;;;6.47;96.69;98819.38;5101155;28;20448;-71
2022/09/29 05:22:48;;;;;;;36.33;22.40;;;;;;;6.29;97.28;98809.56;5099498;28;20491;-70
2022/09/29 05:25:16;;;;;;;32.13;22.80;;;;;;;6.26;97.66;98814.34;5091171;28;20604;-70
2022/09/29 05:27:43;;;;;;;40.17;24.27;;;;;;;6.37;97.65;98808.81;5100878;28;21045;-70
2022/09/29 05:30:10;;;;;;;35.40;23.13;;;;;;;6.45;97.76;98814.22;5099271;28;20868;-70
2022/09/29 05:32:37;;;;;;;31.97;21.50;;;;;;;6.67;97.40;98818.28;5101096;28;20475;-70
2022/09/29 05:35:04;;;;;;;27.73;19.53;;;;;;;6.77;96.62;98824.34;5100364;28;20448;-71
2022/09/29 05:37:30;;;;;;;29.93;21.17;;;;;;;6.76;96.20;98817.38;5100374;28;20509;-71
2022/09/29 05:39:57;;;;;;;28.97;20.93;;;;;;;6.74;96.26;98822.00;5101032;28;20424;-71
2022/09/29 05:42:26;;;;;;;29.77;21.47;;;;;;;6.71;96.20;98824.94;5099473;28;20471;-71
2022/09/29 05:44:53;;;;;;;28.07;21.00;;;;;;;6.68;96.20;98827.91;5101256;28;20483;-71
2022/09/29 05:47:19;;;;;;;36.23;24.70;;;;;;;6.66;96.15;98829.06;5100225;28;20490;-70
2022/09/29 05:49:46;;;;;;;34.97;23.70;;;;;;;6.71;96.79;98816.97;5100114;28;20505;-71
2022/09/29 05:52:13;;;;;;;36.50;23.37;;;;;;;7.28;96.98;98829.09;5100381;28;20547;-69
2022/09/29 05:54:39;;;;;;;33.17;23.93;;;;;;;7.58;95.07;98825.16;5099431;28;20473;-69
2022/09/29 05:57:13;;;;;;;35.63;23.03;;;;;;;7.94;93.48;98824.19;5100551;28;20479;-69
2022/09/29 05:59:41;;;;;;;39.70;25.13;;;;;;;7.66;92.45;98827.88;5100685;28;21017;-70
2022/09/29 06:02:08;;;;;;;32.07;22.50;;;;;;;7.91;91.62;98822.69;5100128;28;20494;-69
2022/09/29 06:04:35;;;;;;;35.10;26.57;;;;;;;8.50;91.15;98835.25;5100260;28;20517;-69
2022/09/29 06:07:03;;;;;;;30.60;22.30;;;;;;;8.56;88.87;98838.13;5099985;28;20491;-69
2022/09/29 06:09:30;;;;;;;33.67;25.90;;;;;;;8.76;88.12;98830.66;5100335;28;20452;-69
2022/09/29 06:11:56;;;;;;;33.07;27.10;;;;;;;9.00;87.44;98837.84;5098778;28;20518;-70
2022/09/29 06:14:23;;;;;;;32.10;23.70;;;;;;;8.99;85.40;98838.00;5099251;28;21003;-69
2022/09/29 06:16:51;;;;;;;29.50;20.77;;;;;;;8.98;85.95;98839.84;5096468;28;20506;-69
2022/09/29 06:19:18;;;;;;;26.60;21.00;;;;;;;9.73;86.18;98844.16;5097467;28;20451;-69
2022/09/29 06:21:44;;;;;;;28.57;21.47;;;;;;;10.96;82.60;98833.97;5099125;28;20631;-69
2022/09/29 06:24:11;;;;;;;28.27;21.97;;;;;;;12.33;76.87;98842.69;5099302;28;20448;-69
2022/09/29 06:26:38;;;;;;;27.83;20.03;;;;;;;13.40;72.23;98854.59;5098617;28;20467;-69
2022/09/29 06:29:05;;;;;;;20.13;16.50;;;;;;;13.78;66.99;98848.09;5100020;28;20465;-70
2022/09/29 06:31:32;;;;;;;15.77;14.07;;;;;;;14.55;63.30;98841.69;5099685;28;20479;-69
2022/09/29 06:34:01;;;;;;;17.40;13.37;;;;;;;14.22;61.11;98853.13;5098160;28;20459;-69
2022/09/29 06:39:15;;;;;;;11.43;10.33;;;;;;;15.07;57.97;98852.84;5097661;28;20430;-70
2022/09/29 06:41:47;;;;;;;10.20;9.20;;;;;;;16.28;54.42;98846.38;5097739;28;20475;-69
2022/09/29 06:44:14;;;;;;;9.77;8.73;;;;;;;15.56;54.70;98853.50;5079252;28;20454;-69
2022/09/29 06:46:40;;;;;;;20.77;9.53;;;;;;;15.23;56.33;98849.75;5092792;28;20475;-70
2022/09/29 06:49:08;;;;;;;11.60;9.73;;;;;;;16.53;52.31;98856.47;5096741;28;20455;-70
2022/09/29 06:51:36;;;;;;;10.43;9.37;;;;;;;16.79;53.89;98857.38;5089381;28;20499;-70
2022/09/29 06:54:05;;;;;;;11.87;9.60;;;;;;;17.29;50.04;98852.13;5099568;28;20511;-69
2022/09/29 06:56:32;;;;;;;10.80;9.57;;;;;;;18.21;48.20;98865.06;5098233;28;20503;-70
2022/09/29 06:58:58;;;;;;;9.30;8.37;;;;;;;16.47;52.10;98855.44;5099249;28;20531;-70
2022/09/29 07:01:25;;;;;;;11.00;9.17;;;;;;;16.72;53.35;98862.84;5098247;28;20482;-70
2022/09/29 07:03:52;;;;;;;11.77;10.10;;;;;;;16.45;52.97;98862.91;5098341;28;20455;-70
2022/09/29 07:06:20;;;;;;;11.10;10.00;;;;;;;14.31;58.60;98867.22;5098834;28;20572;-71
2022/09/29 07:08:46;;;;;;;11.60;9.90;;;;;;;15.33;58.21;98862.84;5098427;28;20479;-70
2022/09/29 07:11:13;;;;;;;13.00;11.77;;;;;;;15.79;56.60;98866.59;5098303;28;20505;-70
2022/09/29 07:13:40;;;;;;;14.63;12.60;;;;;;;14.94;59.53;98863.56;5098437;28;20515;-70
2022/09/29 07:16:08;;;;;;;15.60;12.97;;;;;;;14.52;59.64;98868.97;5098454;28;20649;-70
2022/09/29 07:18:36;;;;;;;14.97;13.40;;;;;;;13.40;62.64;98865.31;5097135;28;20494;-70
2022/09/29 07:21:03;;;;;;;16.90;14.03;;;;;;;12.15;67.94;98866.34;5098607;28;20554;-69
2022/09/29 07:23:31;;;;;;;17.17;13.00;;;;;;;11.40;71.55;98870.75;5099293;28;20446;-69
2022/09/29 07:25:58;;;;;;;18.13;13.23;;;;;;;11.05;74.59;98870.34;5097011;28;20478;-70
2022/09/29 07:28:25;;;;;;;18.07;13.93;;;;;;;10.77;76.21;98872.69;5098053;28;20451;-69
2022/09/29 07:30:59;;;;;;;20.50;15.03;;;;;;;11.08;75.99;98875.34;5098430;28;20510;-68
2022/09/29 07:33:26;;;;;;;19.47;13.90;;;;;;;10.84;76.18;98879.00;5097529;28;20443;-70
2022/09/29 07:35:52;;;;;;;19.00;14.90;;;;;;;10.63;77.97;98874.25;5098499;28;20491;-69
2022/09/29 07:38:19;;;;;;;19.33;15.00;;;;;;;10.52;77.93;98876.31;5097821;28;20447;-70
2022/09/29 07:40:47;;;;;;;20.10;15.20;;;;;;;10.87;76.25;98890.16;5097243;28;20475;-69
2022/09/29 07:43:14;;;;;;;24.37;16.40;;;;;;;10.71;75.75;98885.75;5098691;28;20440;-69
2022/09/29 07:45:47;;;;;;;18.87;15.17;;;;;;;10.96;76.32;98893.63;5098141;28;20487;-69
2022/09/29 07:48:14;;;;;;;20.60;16.50;;;;;;;11.46;75.18;98892.25;5096434;28;20454;-69
2022/09/29 07:50:41;;;;;;;24.60;17.90;;;;;;;11.75;73.17;98892.50;5097799;28;20470;-69
2022/09/29 07:53:08;;;;;;;19.60;14.50;;;;;;;11.40;73.62;98894.81;5098790;28;20532;-68
2022/09/29 07:55:35;;;;;;;20.23;16.07;;;;;;;11.39;75.11;98896.69;5097287;28;20528;-68
2022/09/29 07:58:03;;;;;;;23.03;16.40;;;;;;;11.80;73.70;98900.84;5098455;28;20486;-68
2022/09/29 08:00:31;;;;;;;27.73;18.40;;;;;;;11.71;73.49;98907.28;5097888;28;20471;-67
2022/09/29 08:03:01;;;;;;;24.30;16.63;;;;;;;11.73;73.49;98911.44;5097273;28;20452;-67
2022/09/29 08:05:27;;;;;;;24.53;16.23;;;;;;;11.79;73.64;98907.22;5096861;28;21283;-67
2022/09/29 08:07:54;;;;;;;27.60;17.53;;;;;;;12.34;73.64;98911.38;5102568;28;20544;-67
2022/09/29 08:10:21;;;;;;;30.87;18.57;;;;;;;13.26;71.83;98907.31;5101385;28;20496;-67
2022/09/29 08:12:47;;;;;;;33.30;20.10;;;;;;;12.98;69.54;98917.94;5101841;28;20459;-68
2022/09/29 08:15:16;;;;;;;31.60;18.90;;;;;;;12.55;70.80;98913.31;5101873;28;20440;-68
2022/09/29 08:17:42;;;;;;;33.20;19.70;;;;;;;12.44;71.53;98919.13;5100816;28;20508;-67
2022/09/29 08:20:09;;;;;;;27.37;19.40;;;;;;;12.41;71.53;98920.34;5100717;28;20447;-68
2022/09/29 08:22:36;;;;;;;32.97;20.30;;;;;;;14.36;67.04;98925.78;5102222;28;20456;-68
2022/09/29 08:25:04;;;;;;;30.50;19.17;;;;;;;16.10;58.99;98922.53;5100741;28;20544;-67
2022/09/29 08:27:30;;;;;;;26.63;19.10;;;;;;;16.74;56.56;98920.13;5101123;28;20483;-67
2022/09/29 08:29:57;;;;;;;24.57;17.40;;;;;;;18.35;52.12;98926.13;5102083;28;20469;-69
2022/09/29 08:32:25;;;;;;;24.87;18.80;;;;;;;18.53;50.37;98927.19;5101352;28;20561;-68
2022/09/29 08:34:52;;;;;;;23.13;18.00;;;;;;;19.12;48.52;98931.09;5101572;28;20519;-68
2022/09/29 08:37:18;;;;;;;20.17;17.43;;;;;;;19.82;48.77;98926.97;5101622;28;20484;-68
2022/09/29 08:39:45;;;;;;;24.60;16.77;;;;;;;21.37;44.07;98934.69;5101355;28;20454;-68
2022/09/29 08:42:16;;;;;;;19.20;16.17;;;;;;;20.39;44.93;98933.72;5101169;28;20495;-68
2022/09/29 08:44:45;;;;;;;18.80;15.77;;;;;;;21.60;42.75;98931.03;5100744;28;20821;-68
2022/09/29 08:47:18;;;;;;;17.83;16.10;;;;;;;20.96;43.97;98933.88;5100869;28;21076;-68
2022/09/29 08:49:49;;;;;;;17.10;15.30;;;;;;;21.41;42.39;98930.41;5101178;28;20463;-68
2022/09/29 08:52:20;;;;;;;21.43;16.13;;;;;;;20.80;43.77;98942.81;5100807;28;20510;-68
2022/09/29 08:54:47;;;;;;;18.77;16.37;;;;;;;19.69;46.30;98943.44;5100739;28;20449;-68
2022/09/29 08:57:17;;;;;;;20.50;16.67;;;;;;;19.59;45.76;98938.56;5101332;28;20474;-68
2022/09/29 08:59:45;;;;;;;20.23;15.50;;;;;;;21.01;43.79;98938.59;5101935;28;20502;-69
2022/09/29 09:02:33;;;;;;;18.87;15.40;;;;;;;21.40;41.94;98936.06;5100383;28;20504;-68
2022/09/29 09:05:17;;;;;;;17.40;15.53;;;;;;;21.18;43.20;98946.78;5100341;28;20486;-67
2022/09/29 09:07:46;;;;;;;18.33;15.40;;;;;;;21.48;41.54;98943.06;5101461;28;20580;-68
2022/09/29 09:10:22;;;;;;;15.80;13.57;;;;;;;22.17;40.30;98948.31;5099880;28;20521;-69
2022/09/29 09:13:18;;;;;;;16.93;15.07;;;;;;;22.30;39.06;98945.25;5100207;28;20480;-68
2022/09/29 09:15:54;;;;;;;16.10;14.40;;;;;;;22.53;40.54;98944.25;5097338;28;20473;-68
2022/09/29 09:18:33;;;;;;;13.53;12.13;;;;;;;22.99;38.00;98948.66;5099781;28;20479;-68
2022/09/29 09:21:08;;;;;;;13.87;12.50;;;;;;;22.94;38.23;98942.03;5100460;28;21309;-68
2022/09/29 09:23:42;;;;;;;13.77;12.33;;;;;;;23.15;37.64;98942.31;5101304;28;20523;-68
2022/09/29 09:26:10;;;;;;;14.07;12.10;;;;;;;;;;5100187;28;20474;-68
2022/09/29 09:28:39;;;;;;;13.27;11.97;;;;;;;21.71;40.47;98950.25;5101908;28;20466;-67
2022/09/29 09:31:08;;;;;;;14.70;12.13;;;;;;;21.58;40.43;98946.78;5100387;28;20498;-68
2022/09/29 09:33:39;;;;;;;13.13;11.77;;;;;;;21.85;40.87;98950.78;5100763;28;20467;-68
2022/09/29 09:36:10;;;;;;;18.77;12.10;;;;;;;20.80;41.40;98950.94;5101092;28;20526;-68
2022/09/29 09:38:45;;;;;;;13.97;12.00;;;;;;;19.73;46.31;98952.75;5101326;28;20462;-67
2022/09/29 09:41:15;;;;;;;13.27;11.67;;;;;;;20.99;43.51;98947.00;5100422;28;20477;-67
2022/09/29 09:43:44;;;;;;;11.80;10.60;;;;;;;21.22;42.59;98953.41;5101257;28;20538;-66
2022/09/29 09:46:16;;;;;;;13.43;10.07;;;;;;;21.76;40.40;98948.44;5098974;28;20841;-69
2022/09/29 09:48:45;;;;;;;9.80;8.80;;;;;;;20.99;41.18;98955.16;5100568;28;20484;-69
2022/09/29 09:51:32;;;;;;;8.97;8.07;;;;;;;22.08;38.36;98955.22;5099792;28;20498;-68
2022/09/29 09:54:03;;;;;;;10.00;9.03;;;;;;;22.35;38.46;98944.50;5099864;28;20485;-68
2022/09/29 09:56:46;;;;;;;10.77;8.80;;;;;;;21.53;39.62;98946.69;5094213;28;20505;-68
2022/09/29 09:59:19;;;;;;;9.80;8.10;;;;;;;20.60;40.71;98948.56;5100561;28;20458;-68
2022/09/29 10:01:46;;;;;;;8.93;7.37;;;;;;;21.28;39.33;98954.34;5099511;28;20532;-68
2022/09/29 10:04:13;;;;;;;8.33;7.07;;;;;;;20.82;41.58;98951.53;5099698;28;20462;-68
2022/09/29 10:06:41;;;;;;;9.30;6.70;;;;;;;21.41;38.94;98949.44;5099210;28;20542;-67
2022/09/29 10:09:12;;;;;;;7.23;6.53;;;;;;;22.28;38.29;98952.84;5099558;28;20516;-67
2022/09/29 10:11:41;;;;;;;7.70;6.87;;;;;;;22.02;39.71;98948.88;5105266;28;20526;-67
2022/09/29 10:14:13;;;;;;;7.67;6.87;;;;;;;21.99;39.21;98947.50;5117454;28;20449;-67
2022/09/29 10:16:44;;;;;;;6.50;5.90;;;;;;;23.02;37.13;98956.28;5099234;28;20510;-68
2022/09/29 10:19:10;;;;;;;8.60;4.20;;;;;;;22.01;37.33;98949.94;5098167;28;20467;-67
2022/09/29 10:21:39;;;;;;;6.23;5.23;;;;;;;21.28;41.13;98963.31;5099777;28;20845;-68
2022/09/29 10:24:20;;;;;;;5.90;5.20;;;;;;;21.94;38.99;98954.72;5099596;28;20454;-67
2022/09/29 10:26:49;;;;;;;5.70;4.80;;;;;;;21.37;38.63;98958.31;5099221;28;21113;-67
2022/09/29 10:29:23;;;;;;;6.30;4.23;;;;;;;20.18;42.07;98956.84;5096684;28;20479;-67
2022/09/29 10:32:05;;;;;;;5.93;5.23;;;;;;;20.82;40.59;98962.41;5082645;28;20503;-66
2022/09/29 10:34:33;;;;;;;6.43;4.37;;;;;;;21.66;40.15;98961.06;5097653;28;20788;-67
2022/09/29 10:37:02;;;;;;;5.93;4.70;;;;;;;22.48;36.68;98965.97;5097307;28;20474;-67
2022/09/29 10:39:41;;;;;;;5.00;4.50;;;;;;;22.81;36.18;98968.84;5097077;28;20470;-67
2022/09/29 10:42:22;;;;;;;4.60;3.97;;;;;;;22.69;37.59;98971.66;5097010;28;20486;-67
2022/09/29 10:44:54;;;;;;;4.40;3.77;;;;;;;20.74;39.31;98973.63;5098025;28;20470;-67
2022/09/29 10:47:22;;;;;;;5.70;4.17;;;;;;;18.11;44.19;98972.97;5076125;28;20529;-66
2022/09/29 10:50:08;;;;;;;4.90;4.17;;;;;;;17.92;47.86;98972.91;5076994;28;20464;-67
2022/09/29 10:52:34;;;;;;;7.67;5.70;;;;;;;17.34;49.51;98979.25;5077053;28;20890;-66
2022/09/29 10:55:03;;;;;;;6.60;5.03;;;;;;;19.41;45.63;98977.41;5094471;28;20444;-67
2022/09/29 10:57:32;;;;;;;4.70;4.20;;;;;;;21.48;39.97;98978.41;5096695;28;20535;-67
2022/09/29 10:59:59;;;;;;;6.23;4.00;;;;;;;21.87;39.68;98976.66;5096758;28;20460;-67
2022/09/29 11:02:29;;;;;;;5.47;4.20;;;;;;;22.72;37.52;98976.63;5096779;28;20505;-68
2022/09/29 11:04:58;;;;;;;6.20;3.77;;;;;;;21.78;37.47;98978.94;5097090;28;20642;-68
2022/09/29 11:07:25;;;;;;;12.97;9.40;;;;;;;20.97;40.87;98981.75;5095912;28;20499;-68
2022/09/29 11:09:53;;;;;;;4.90;4.40;;;;;;;19.48;43.46;98983.56;5098150;28;20448;-68
2022/09/29 11:12:37;;;;;;;7.40;4.33;;;;;;;20.11;42.76;98973.25;5096216;28;20486;-67
2022/09/29 11:15:23;;;;;;;7.80;4.00;;;;;;;21.88;38.98;98974.78;5095341;28;20461;-67
2022/09/29 11:17:51;;;;;;;4.47;3.43;;;;;;;21.36;39.59;98979.25;5096296;28;20481;-67
2022/09/29 11:20:18;;;;;;;4.60;4.20;;;;;;;20.91;39.20;98979.16;5096076;28;20462;-67
2022/09/29 11:23:03;;;;;;;4.30;3.90;;;;;;;19.69;42.53;98989.53;5096838;28;20463;-67
2022/09/29 11:25:47;;;;;;;3.47;3.17;;;;;;;18.34;43.08;98981.28;5095998;28;20475;-67
2022/09/29 11:28:48;;;;;;;4.33;3.03;;;;;;;16.87;48.71;98989.44;5097385;28;20501;-66
2022/09/29 11:31:27;;;;;;;5.03;3.00;;;;;;;17.91;46.03;98987.47;5094111;28;20489;-67
2022/09/29 11:34:02;;;;;;;3.50;2.83;;;;;;;20.48;42.58;98989.31;5084416;28;20459;-66
2022/09/29 11:36:37;;;;;;;3.33;2.53;;;;;;;22.21;37.37;98993.00;5096477;28;20464;-67
2022/09/29 11:39:15;;;;;;;3.47;3.17;;;;;;;23.08;34.83;98982.56;5095935;28;20472;-67